Midway, West Virginia
Current Conditions -  °F | °C
As of 3:51 PM on Saturday 22 Nov 2014 (Local Time) from KBKW Reporting Station
Clear Clear  
Wind Chill: 56°   Ceiling: Unl
Heat Index: 56°   Visibility: 10mi
Dew Point: 21°   Wind: 7mph
Humidity: 26%   Direction: 220°SW
Pressure: 30.23"   Gusts: NA
Location:  37.71°N, 81.23°W
Report Text: KBKW 222051Z AUTO 22006KT 10SM CLR 13/M06 A3023 RMK AO2 SLP248 T01331061 56024
Loading
Personal Weather Stations






























Interactive Weather Map New forecast layout! Learn more

10-Day Weather Forecast

Advertisements
Track Severe Weather on mobile